Time;durP1;ratioP1;P1;durP2;ratioP2;P2;SDS_P1;SDS_P2;PMS_P1;PMS_P2;Temp;Humidity;BMP_temperature;BMP_pressure;BME280_temperature;BME280_humidity;BME280_pressure;Samples;Min_cycle;Max_cycle;Signal;HPM_P1;HPM_P2
2021/10/22 00:02:02;;;;;;;9.30;3.40;;;;;;;7.23;80.72;100275.28;5098791;28;20474;-65
2021/10/22 00:04:27;;;;;;;9.50;3.90;;;;;;;7.22;80.28;100283.91;5098439;28;20179;-66
2021/10/22 00:06:53;;;;;;;5.73;3.60;;;;;;;7.39;80.44;100281.59;5098686;28;20222;-66
2021/10/22 00:09:18;;;;;;;6.37;3.80;;;;;;;7.50;79.60;100281.75;5098195;28;20225;-65
2021/10/22 00:11:44;;;;;;;6.07;3.27;;;;;;;7.64;78.68;100267.25;5098915;28;20172;-66
2021/10/22 00:14:11;;;;;;;10.10;3.40;;;;;;;7.54;79.52;100278.34;5100895;28;20248;-68
2021/10/22 00:16:37;;;;;;;6.97;3.40;;;;;;;7.33;79.87;100277.16;5099579;28;20381;-65
2021/10/22 00:19:03;;;;;;;7.70;3.70;;;;;;;7.50;79.85;100289.53;5098576;28;20395;-66
2021/10/22 00:21:28;;;;;;;5.77;3.40;;;;;;;7.59;79.26;100289.69;5098533;28;20173;-65
2021/10/22 00:23:53;;;;;;;7.50;3.47;;;;;;;7.51;79.54;100301.63;5097920;28;20414;-65
2021/10/22 00:26:19;;;;;;;7.00;3.07;;;;;;;7.50;80.22;100300.78;5097897;28;20472;-65
2021/10/22 00:28:44;;;;;;;12.80;3.90;;;;;;;7.22;80.89;100289.09;5098349;28;20176;-64
2021/10/22 00:31:10;;;;;;;8.53;3.40;;;;;;;7.29;80.62;100292.66;5100125;28;20172;-65
2021/10/22 00:33:35;;;;;;;6.33;3.60;;;;;;;7.13;81.18;100274.28;5105240;28;20200;-68
2021/10/22 00:36:02;;;;;;;8.93;4.03;;;;;;;7.28;81.36;100281.44;5109236;28;20164;-65
2021/10/22 00:38:27;;;;;;;10.73;4.23;;;;;;;7.21;81.80;100282.16;5110783;28;20166;-65
2021/10/22 00:40:53;;;;;;;10.37;3.63;;;;;;;7.23;81.74;100283.94;5110498;28;20406;-66
2021/10/22 00:43:18;;;;;;;11.10;3.77;;;;;;;7.28;81.67;100283.13;5110398;28;20173;-65
2021/10/22 00:45:44;;;;;;;13.73;3.73;;;;;;;7.35;82.14;100285.00;5110022;28;20546;-65
2021/10/22 00:48:09;;;;;;;8.43;3.53;;;;;;;7.38;81.53;100265.13;5109775;28;20230;-66
2021/10/22 00:50:37;;;;;;;10.87;3.67;;;;;;;6.99;81.51;100265.41;5100540;28;20247;-65
2021/10/22 00:53:03;;;;;;;6.47;3.60;;;;;;;7.39;81.41;100269.50;5074166;28;20172;-65
2021/10/22 00:55:29;;;;;;;7.50;3.10;;;;;;;7.35;81.52;100282.41;5083524;28;20768;-65
2021/10/22 00:57:55;;;;;;;6.80;3.07;;;;;;;7.16;81.84;100276.06;5064057;28;20172;-65
2021/10/22 01:00:20;;;;;;;9.57;4.40;;;;;;;7.24;81.64;100277.03;5063466;28;20788;-66
2021/10/22 01:02:46;;;;;;;6.47;2.90;;;;;;;7.16;81.19;100282.09;5081522;28;20549;-65
2021/10/22 01:05:14;;;;;;;7.80;3.10;;;;;;;7.13;81.82;100283.75;5080837;28;20402;-66
2021/10/22 01:07:41;;;;;;;10.83;3.57;;;;;;;7.17;81.33;100281.25;5080721;28;20165;-66
2021/10/22 01:10:07;;;;;;;5.87;3.03;;;;;;;7.00;81.80;100283.56;5081239;28;20389;-65
2021/10/22 01:12:34;;;;;;;8.83;3.30;;;;;;;7.19;81.78;100289.06;5080606;28;20442;-64
2021/10/22 01:15:00;;;;;;;11.10;3.40;;;;;;;7.34;80.79;100289.28;5080738;28;20470;-65
2021/10/22 01:17:37;;;;;;;8.00;2.90;;;;;;;7.30;80.16;100299.59;5084417;28;20392;-65
2021/10/22 01:20:13;;;;;;;5.50;3.37;;;;;;;7.40;80.16;100302.38;5080829;28;20407;-66
2021/10/22 01:22:40;;;;;;;6.00;3.60;;;;;;;7.42;80.36;100307.56;5080871;28;20407;-64
2021/10/22 01:25:07;;;;;;;5.47;3.00;;;;;;;7.35;80.89;100285.84;5080443;28;20423;-65
2021/10/22 01:27:34;;;;;;;4.83;2.77;;;;;;;7.57;80.25;100293.97;5080595;28;20378;-65
2021/10/22 01:30:00;;;;;;;5.70;2.53;;;;;;;7.46;80.77;100292.94;5080963;28;20379;-65
2021/10/22 01:32:26;;;;;;;6.83;2.87;;;;;;;7.50;80.92;100276.56;5080296;28;20837;-65
2021/10/22 01:34:52;;;;;;;7.00;3.53;;;;;;;7.49;79.88;100282.59;5080272;28;20275;-66
2021/10/22 01:37:17;;;;;;;5.57;2.90;;;;;;;7.59;80.58;100281.91;5080931;28;20176;-66
2021/10/22 01:39:42;;;;;;;4.10;2.33;;;;;;;7.36;80.10;100277.22;5080169;28;20169;-65
2021/10/22 01:42:07;;;;;;;6.00;3.03;;;;;;;7.26;80.50;100280.53;5080147;28;20176;-64
2021/10/22 01:44:33;;;;;;;7.30;3.13;;;;;;;7.28;80.08;100289.22;5080638;28;20161;-65
2021/10/22 01:46:59;;;;;;;7.30;3.00;;;;;;;7.44;80.55;100287.69;5078850;28;20214;-65
2021/10/22 01:49:25;;;;;;;5.17;2.73;;;;;;;7.54;80.35;100280.94;5079656;28;20364;-66
2021/10/22 01:51:50;;;;;;;9.10;2.93;;;;;;;7.56;79.74;100279.22;5079964;28;20211;-65
2021/10/22 01:54:16;;;;;;;6.20;2.53;;;;;;;7.56;79.51;100280.13;5079707;28;20283;-66
2021/10/22 01:56:41;;;;;;;8.47;2.73;;;;;;;7.69;78.56;100280.28;5079668;28;20173;-65
2021/10/22 01:59:07;;;;;;;4.10;2.47;;;;;;;7.37;79.02;100278.09;5080217;28;20389;-65
2021/10/22 02:01:32;;;;;;;6.83;3.43;;;;;;;7.68;78.49;100270.75;5079511;28;20447;-65
2021/10/22 02:03:57;;;;;;;7.13;3.00;;;;;;;7.94;77.89;100276.28;5079554;28;20169;-65
2021/10/22 02:06:23;;;;;;;8.60;2.90;;;;;;;7.92;77.00;100265.03;5079967;28;20252;-65
2021/10/22 02:08:48;;;;;;;4.80;2.60;;;;;;;7.72;77.81;100265.63;5079515;28;20230;-65
2021/10/22 02:11:14;;;;;;;5.13;2.60;;;;;;;7.45;79.97;100273.88;5079230;28;20205;-65
2021/10/22 02:13:39;;;;;;;4.43;2.57;;;;;;;7.80;79.92;100272.66;5079672;28;20207;-65
2021/10/22 02:16:04;;;;;;;4.67;2.90;;;;;;;7.72;78.71;100268.22;5079262;28;20189;-65
2021/10/22 02:18:30;;;;;;;6.43;3.00;;;;;;;7.85;78.10;100273.59;5079292;28;20209;-66
2021/10/22 02:20:55;;;;;;;4.83;2.50;;;;;;;7.76;78.47;100275.19;5079595;28;20238;-65
2021/10/22 02:23:20;;;;;;;5.67;2.80;;;;;;;7.91;77.46;100271.97;5079135;28;20173;-66
2021/10/22 02:25:46;;;;;;;6.83;2.57;;;;;;;8.05;77.27;100266.03;5079247;28;20180;-65
2021/10/22 02:28:12;;;;;;;8.53;2.87;;;;;;;7.92;78.04;100268.47;5079424;28;20532;-65
2021/10/22 02:30:37;;;;;;;4.73;2.33;;;;;;;7.86;77.89;100264.94;5078880;28;20546;-65
2021/10/22 02:33:02;;;;;;;7.27;2.93;;;;;;;7.64;80.15;100266.38;5079122;28;20169;-65
2021/10/22 02:35:28;;;;;;;5.83;2.90;;;;;;;7.40;79.42;100266.06;5079306;28;20505;-66
2021/10/22 02:37:54;;;;;;;4.70;2.70;;;;;;;7.56;79.56;100261.06;5078721;28;20193;-65
2021/10/22 02:40:19;;;;;;;3.90;2.67;;;;;;;7.75;78.79;100260.50;5078747;28;20176;-65
2021/10/22 02:42:45;;;;;;;7.00;3.30;;;;;;;7.83;78.02;100260.56;5079080;28;20407;-65
2021/10/22 02:45:10;;;;;;;6.00;2.57;;;;;;;7.72;78.00;100252.66;5078611;28;20176;-65
2021/10/22 02:47:36;;;;;;;4.00;2.60;;;;;;;7.58;79.01;100255.06;5078625;28;20165;-65
2021/10/22 02:50:02;;;;;;;5.77;2.57;;;;;;;7.64;79.45;100259.47;5078626;28;20266;-65
2021/10/22 02:52:28;;;;;;;6.90;2.43;;;;;;;7.75;78.90;100252.72;5077774;28;20538;-64
2021/10/22 02:54:53;;;;;;;6.70;2.90;;;;;;;7.68;79.05;100245.69;5081339;28;20429;-65
2021/10/22 02:57:18;;;;;;;5.00;2.60;;;;;;;7.55;78.63;100247.25;5080837;28;20165;-66
2021/10/22 02:59:43;;;;;;;5.90;2.93;;;;;;;7.64;79.52;100250.81;5080787;28;20165;-64
2021/10/22 03:02:09;;;;;;;5.53;2.30;;;;;;;7.71;78.89;100247.44;5063247;28;20480;-66
2021/10/22 03:04:34;;;;;;;3.20;2.27;;;;;;;7.62;78.43;100252.50;5080826;28;20180;-65
2021/10/22 03:06:59;;;;;;;8.17;2.80;;;;;;;7.71;78.44;100237.94;5079685;28;20195;-68
2021/10/22 03:09:25;;;;;;;4.70;2.90;;;;;;;7.73;77.82;100235.38;5080534;28;20176;-66
2021/10/22 03:11:50;;;;;;;8.53;3.23;;;;;;;7.44;79.13;100232.38;5078908;28;20191;-67
2021/10/22 03:14:15;;;;;;;4.10;2.50;;;;;;;7.72;77.79;100226.69;5078312;28;20201;-66
2021/10/22 03:16:43;;;;;;;10.47;2.93;;;;;;;7.58;78.33;100215.28;5078954;28;20423;-66
2021/10/22 03:19:10;;;;;;;5.53;2.93;;;;;;;7.78;77.87;100210.38;5078381;28;20165;-65
2021/10/22 03:21:36;;;;;;;5.33;3.10;;;;;;;7.66;78.45;100215.38;5077959;28;20399;-65
2021/10/22 03:24:02;;;;;;;6.03;3.10;;;;;;;7.51;78.69;100203.06;5078819;28;20415;-64
2021/10/22 03:26:27;;;;;;;5.73;2.90;;;;;;;7.57;78.34;100198.84;5078119;28;20569;-65
2021/10/22 03:28:52;;;;;;;8.20;3.60;;;;;;;7.93;77.65;100196.69;5078232;28;20446;-65
2021/10/22 03:31:18;;;;;;;8.60;3.30;;;;;;;7.94;76.75;100198.41;5078256;28;20165;-65
2021/10/22 03:33:43;;;;;;;7.43;3.30;;;;;;;7.94;77.08;100193.22;5060558;28;20608;-65
2021/10/22 03:36:08;;;;;;;15.80;3.63;;;;;;;7.88;77.25;100196.63;5078098;28;20233;-64
2021/10/22 03:38:34;;;;;;;3.93;2.97;;;;;;;7.80;77.35;100190.47;5078695;28;20226;-67
2021/10/22 03:40:59;;;;;;;7.00;3.17;;;;;;;7.87;78.57;100188.81;5078012;28;20173;-64
2021/10/22 03:43:24;;;;;;;7.73;3.10;;;;;;;7.94;76.04;100185.44;5078269;28;20270;-65
2021/10/22 03:45:50;;;;;;;12.20;4.03;;;;;;;7.89;76.88;100174.16;5078689;28;20530;-66
2021/10/22 03:48:15;;;;;;;9.10;3.70;;;;;;;7.90;76.37;100186.25;5078061;28;20204;-66
2021/10/22 03:50:41;;;;;;;9.80;3.17;;;;;;;7.80;76.57;100184.44;5077711;28;20294;-65
2021/10/22 03:53:07;;;;;;;7.67;3.10;;;;;;;7.64;77.93;100189.41;5078495;28;20161;-66
2021/10/22 03:55:32;;;;;;;5.77;3.40;;;;;;;7.74;78.52;100180.91;5077976;28;20455;-66
2021/10/22 03:57:57;;;;;;;5.23;3.73;;;;;;;7.79;75.93;100172.31;5078033;28;20179;-65
2021/10/22 04:00:23;;;;;;;7.43;3.50;;;;;;;7.62;76.55;100172.09;5078897;28;20254;-65
2021/10/22 04:02:48;;;;;;;5.70;3.07;;;;;;;7.67;76.67;100163.53;5060444;28;20176;-65
2021/10/22 04:05:13;;;;;;;7.67;3.30;;;;;;;7.45;77.50;100167.56;5077858;28;20173;-65
2021/10/22 04:07:39;;;;;;;7.33;3.43;;;;;;;7.81;75.93;100170.59;5078286;28;20199;-64
2021/10/22 04:10:06;;;;;;;6.47;3.70;;;;;;;7.96;74.98;100165.56;5078617;28;20169;-66
2021/10/22 04:12:32;;;;;;;6.90;3.47;;;;;;;7.56;76.68;100166.00;5081560;28;20429;-65
2021/10/22 04:14:57;;;;;;;11.20;3.90;;;;;;;7.56;76.95;100159.91;5082183;28;20486;-65
2021/10/22 04:17:22;;;;;;;6.40;3.20;;;;;;;7.61;76.86;100158.25;5081558;28;20418;-65
2021/10/22 04:19:48;;;;;;;9.53;3.97;;;;;;;8.02;74.31;100151.78;5081445;28;20173;-65
2021/10/22 04:22:13;;;;;;;6.47;2.97;;;;;;;7.40;76.47;100146.75;5081652;28;20226;-65
2021/10/22 04:24:38;;;;;;;8.10;3.43;;;;;;;7.74;75.22;100157.53;5047380;28;20181;-66
2021/10/22 04:27:04;;;;;;;13.10;5.50;;;;;;;7.81;75.67;100157.63;5081435;28;20211;-66
2021/10/22 04:29:29;;;;;;;7.93;3.50;;;;;;;7.57;77.03;100151.28;5081686;28;20475;-68
2021/10/22 04:31:54;;;;;;;8.67;3.53;;;;;;;7.65;75.27;100149.66;5081229;28;20169;-65
2021/10/22 04:34:20;;;;;;;6.63;3.50;;;;;;;7.94;74.72;100146.50;5081289;28;20201;-66
2021/10/22 04:36:47;;;;;;;8.33;3.90;;;;;;;7.68;74.94;100147.09;5081593;28;20169;-64
2021/10/22 04:41:56;;;;;;;8.90;3.40;;;;;;;7.91;74.17;100125.72;5081193;28;20381;-64
2021/10/22 04:44:25;;;;;;;6.27;3.20;;;;;;;7.97;74.41;100123.19;5081221;28;20415;-65
2021/10/22 04:46:51;;;;;;;7.53;3.20;;;;;;;8.05;73.97;100131.03;5063747;28;20173;-64
2021/10/22 04:49:16;;;;;;;6.80;4.13;;;;;;;7.79;74.03;100126.44;5081345;28;20510;-67
2021/10/22 04:51:41;;;;;;;7.90;3.60;;;;;;;8.07;74.16;100122.41;5080594;28;20323;-69
2021/10/22 04:54:07;;;;;;;10.90;3.20;;;;;;;8.41;73.66;100127.06;5080835;28;20196;-65
2021/10/22 04:56:33;;;;;;;5.60;3.37;;;;;;;8.16;75.53;100121.66;5081309;28;20161;-66
2021/10/22 04:58:58;;;;;;;10.13;3.93;;;;;;;7.93;73.61;100126.63;5080839;28;20267;-65
2021/10/22 05:01:24;;;;;;;8.00;3.03;;;;;;;8.04;74.27;100113.75;5080811;28;20443;-65
2021/10/22 05:03:49;;;;;;;9.40;3.33;;;;;;;8.09;73.52;100112.03;5081173;28;20505;-65
2021/10/22 05:06:14;;;;;;;9.27;3.80;;;;;;;8.14;73.57;100096.53;5080715;28;20588;-66
2021/10/22 05:08:40;;;;;;;6.53;3.07;;;;;;;7.93;77.79;100109.31;5080645;28;20254;-65
2021/10/22 05:11:05;;;;;;;9.93;4.20;;;;;;;8.16;75.72;100113.88;5063318;28;20169;-66
2021/10/22 05:13:31;;;;;;;9.97;4.80;;;;;;;7.75;75.29;100107.41;5080509;28;20177;-63
2021/10/22 05:15:56;;;;;;;9.40;5.70;;;;;;;7.60;75.78;100083.88;5080521;28;20173;-71
2021/10/22 05:18:21;;;;;;;9.20;5.83;;;;;;;7.67;76.25;100071.84;5080773;28;20197;-69
2021/10/22 05:20:47;;;;;;;13.70;4.73;;;;;;;7.43;76.90;100083.69;5080186;28;20538;-65
2021/10/22 05:23:12;;;;;;;15.17;4.47;;;;;;;7.85;76.07;100068.59;5080041;28;20161;-66
2021/10/22 05:25:37;;;;;;;9.00;5.17;;;;;;;7.76;76.23;100067.59;5080643;28;20228;-65
2021/10/22 05:28:03;;;;;;;11.83;3.80;;;;;;;7.49;77.05;100059.53;5080329;28;20176;-65
2021/10/22 05:30:28;;;;;;;7.47;3.70;;;;;;;7.92;76.02;100054.81;5080167;28;20188;-66
2021/10/22 05:32:54;;;;;;;8.80;3.23;;;;;;;7.64;76.34;100053.66;5080752;28;20165;-65
2021/10/22 05:35:19;;;;;;;8.10;3.80;;;;;;;7.66;76.60;100057.13;5081929;28;20459;-66
2021/10/22 05:37:44;;;;;;;10.77;3.90;;;;;;;7.90;75.83;100057.38;5085075;28;20177;-65
2021/10/22 05:40:10;;;;;;;8.27;4.67;;;;;;;7.56;77.05;100056.16;5083703;28;20173;-66
2021/10/22 05:42:36;;;;;;;8.10;3.80;;;;;;;7.73;76.20;100053.75;5081285;28;20183;-65
2021/10/22 05:45:01;;;;;;;7.50;3.60;;;;;;;7.73;76.30;100045.97;5080044;28;20427;-64
2021/10/22 05:47:26;;;;;;;5.70;3.53;;;;;;;7.69;76.20;100057.16;5080656;28;20514;-65
2021/10/22 05:49:52;;;;;;;11.33;4.00;;;;;;;8.20;75.36;100044.63;5079842;28;20292;-64
2021/10/22 05:52:17;;;;;;;7.70;3.70;;;;;;;7.89;75.34;100057.38;5079550;28;20534;-64
2021/10/22 05:54:44;;;;;;;11.20;3.60;;;;;;;7.56;76.44;100057.03;5080108;28;20188;-65
2021/10/22 05:57:09;;;;;;;7.87;3.33;;;;;;;7.52;77.02;100044.00;5079553;28;20268;-65
2021/10/22 05:59:34;;;;;;;6.43;4.10;;;;;;;7.72;75.93;100047.66;5079354;28;20485;-64
2021/10/22 06:02:00;;;;;;;6.10;3.63;;;;;;;7.72;75.91;100052.88;5079867;28;20192;-65
2021/10/22 06:04:25;;;;;;;9.63;3.63;;;;;;;7.67;75.84;100046.78;5079444;28;20168;-64
2021/10/22 06:06:50;;;;;;;8.30;3.50;;;;;;;7.80;75.45;100055.53;5080992;28;20234;-65
2021/10/22 06:09:16;;;;;;;5.97;4.13;;;;;;;7.96;74.82;100045.31;5088376;28;20169;-66
2021/10/22 06:11:41;;;;;;;8.20;4.73;;;;;;;7.78;75.83;100046.00;5085699;28;20542;-65
2021/10/22 06:14:06;;;;;;;18.47;4.43;;;;;;;8.21;74.38;100046.38;5069430;28;20236;-66
2021/10/22 06:16:32;;;;;;;10.00;4.37;;;;;;;7.83;75.11;100059.91;5084153;28;20180;-65
2021/10/22 06:19:04;;;;;;;6.43;3.90;;;;;;;7.87;74.96;100039.16;5080103;28;20275;-64
2021/10/22 06:21:55;;;;;;;9.30;4.43;;;;;;;8.20;74.44;100029.94;5079272;28;20161;-65
2021/10/22 06:24:19;;;;;;;13.53;4.80;;;;;;;8.15;74.15;100035.97;5078973;28;20690;-64
2021/10/22 06:26:45;;;;;;;7.47;4.07;;;;;;;7.82;75.09;100027.91;5078955;28;20492;-64
2021/10/22 06:29:12;;;;;;;8.53;4.60;;;;;;;8.05;74.97;100025.50;5079011;28;20265;-65
2021/10/22 06:31:40;;;;;;;14.07;4.37;;;;;;;8.03;74.41;100035.00;5078976;28;20184;-65
2021/10/22 06:34:05;;;;;;;6.77;3.43;;;;;;;7.94;74.38;100021.94;5078826;28;20700;-66
2021/10/22 06:36:31;;;;;;;10.47;3.60;;;;;;;7.99;74.52;100020.25;5079143;28;20423;-66
2021/10/22 06:38:57;;;;;;;13.57;3.90;;;;;;;8.23;73.64;100032.56;5079132;28;20544;-64
2021/10/22 06:41:22;;;;;;;13.70;4.27;;;;;;;8.20;74.11;100024.75;5079008;28;20441;-65
2021/10/22 06:43:48;;;;;;;6.57;3.93;;;;;;;8.23;73.53;100031.69;5078766;28;20196;-65
2021/10/22 06:46:15;;;;;;;6.80;3.77;;;;;;;8.40;73.04;100031.81;5078790;28;20230;-65
2021/10/22 06:48:41;;;;;;;5.87;3.90;;;;;;;8.22;73.45;100032.56;5061727;28;20161;-65
2021/10/22 06:51:07;;;;;;;4.63;3.43;;;;;;;8.27;73.24;100033.47;5078198;28;20426;-65
2021/10/22 06:53:33;;;;;;;17.03;4.17;;;;;;;8.53;72.67;100022.41;5078505;28;20420;-64
2021/10/22 06:55:58;;;;;;;8.70;3.50;;;;;;;8.22;73.46;100017.84;5079096;28;20426;-65
2021/10/22 06:58:23;;;;;;;13.93;4.40;;;;;;;8.42;72.87;100014.53;5078460;28;20177;-65
2021/10/22 07:00:50;;;;;;;7.80;4.10;;;;;;;8.71;72.27;100012.16;5078406;28;20204;-65
2021/10/22 07:03:20;;;;;;;10.63;3.90;;;;;;;9.12;70.44;100027.91;5079041;28;20165;-64
2021/10/22 07:08:24;;;;;;;10.03;4.00;;;;;;;9.27;69.91;100031.44;5078758;28;20382;-65
2021/10/22 07:10:50;;;;;;;12.00;4.13;;;;;;;9.26;69.66;100029.69;5078272;28;20811;-64
2021/10/22 07:13:16;;;;;;;9.13;4.03;;;;;;;9.14;70.18;100023.59;5078343;28;20222;-65
2021/10/22 07:15:41;;;;;;;7.33;3.60;;;;;;;8.82;70.84;100022.59;5078529;28;20195;-66
2021/10/22 07:18:06;;;;;;;6.23;3.43;;;;;;;9.36;69.11;100017.63;5078463;28;20197;-65
2021/10/22 07:20:34;;;;;;;7.73;3.70;;;;;;;9.36;69.09;100015.00;5078751;28;20180;-65
2021/10/22 07:23:04;;;;;;;8.60;3.80;;;;;;;9.78;68.88;100009.88;5078857;28;20161;-65
2021/10/22 07:25:31;;;;;;;8.33;3.50;;;;;;;8.94;70.51;100016.56;5078281;28;20890;-64
2021/10/22 07:27:57;;;;;;;8.27;3.10;;;;;;;8.81;70.80;100009.56;5077952;28;20663;-65
2021/10/22 07:30:22;;;;;;;7.73;3.90;;;;;;;8.69;71.70;100013.84;5060812;28;20411;-67
2021/10/22 07:32:48;;;;;;;9.27;3.97;;;;;;;8.62;72.41;100012.09;5078060;28;20173;-65
2021/10/22 07:35:15;;;;;;;6.90;3.83;;;;;;;8.97;71.36;99994.91;5077985;28;20275;-65
2021/10/22 07:37:40;;;;;;;8.23;4.40;;;;;;;9.11;70.44;99995.84;5078666;28;20168;-65
2021/10/22 07:40:07;;;;;;;5.37;3.60;;;;;;;8.95;70.95;99994.91;5077948;28;20407;-65
2021/10/22 07:42:33;;;;;;;4.77;3.20;;;;;;;8.76;71.33;100001.75;5060625;28;20436;-65
2021/10/22 07:44:59;;;;;;;13.93;3.50;;;;;;;8.87;71.49;100004.41;5079379;28;20406;-65
2021/10/22 07:47:27;;;;;;;7.40;3.60;;;;;;;8.64;72.27;100004.28;5083140;28;20415;-65
2021/10/22 07:49:52;;;;;;;14.70;6.17;;;;;;;9.02;72.25;100025.25;5082312;28;20469;-65
2021/10/22 07:52:20;;;;;;;7.47;3.40;;;;;;;8.76;73.45;100005.22;5082465;28;20493;-64
2021/10/22 07:54:45;;;;;;;5.80;3.43;;;;;;;8.55;76.05;99999.91;5081840;28;20196;-65
2021/10/22 07:57:11;;;;;;;7.53;3.83;;;;;;;8.77;75.62;99988.78;5081809;28;20426;-65
2021/10/22 07:59:37;;;;;;;8.90;4.20;;;;;;;8.59;75.95;99997.34;5082496;28;20161;-65
2021/10/22 08:02:02;;;;;;;13.23;3.70;;;;;;;8.37;76.68;100003.22;5081777;28;20197;-65
2021/10/22 08:04:27;;;;;;;12.00;4.00;;;;;;;8.42;76.58;100007.59;5081900;28;20417;-64
2021/10/22 08:06:53;;;;;;;7.97;4.50;;;;;;;8.63;77.47;100010.34;5082376;28;20515;-66
2021/10/22 08:09:18;;;;;;;8.60;4.23;;;;;;;8.51;77.31;100006.81;5081648;28;20169;-65
2021/10/22 08:11:43;;;;;;;5.50;3.90;;;;;;;8.25;78.16;100011.78;5081491;28;20165;-64
2021/10/22 08:14:09;;;;;;;10.00;4.00;;;;;;;8.57;77.99;100008.59;5082269;28;20275;-65
2021/10/22 08:16:35;;;;;;;6.77;4.27;;;;;;;8.38;78.48;100004.97;5086108;28;20445;-68
2021/10/22 08:19:00;;;;;;;5.63;3.60;;;;;;;8.71;78.22;100001.75;5084631;28;20465;-65
2021/10/22 08:21:56;;;;;;;4.87;3.53;;;;;;;8.65;76.72;100006.03;5082964;28;20183;-66
2021/10/22 08:24:19;;;;;;;8.50;4.00;;;;;;;9.04;76.05;100015.75;5081171;28;20173;-65
2021/10/22 08:26:45;;;;;;;7.20;3.57;;;;;;;8.70;76.33;100018.19;5081670;28;20526;-65
2021/10/22 08:29:10;;;;;;;7.27;3.40;;;;;;;9.00;75.52;100014.00;5081305;28;20243;-65
2021/10/22 08:31:36;;;;;;;6.80;4.03;;;;;;;8.73;76.79;100006.94;5081073;28;20515;-66
2021/10/22 08:34:01;;;;;;;7.07;4.70;;;;;;;8.68;77.10;100006.06;5081535;28;20189;-64
2021/10/22 08:36:27;;;;;;;8.17;4.30;;;;;;;8.69;76.50;100003.44;5081066;28;20394;-66
2021/10/22 08:38:52;;;;;;;7.33;3.90;;;;;;;8.65;76.62;100006.03;5081168;28;20180;-65
2021/10/22 08:41:17;;;;;;;5.83;3.70;;;;;;;8.85;75.72;99999.22;5081253;28;20165;-65
2021/10/22 08:43:44;;;;;;;6.03;3.67;;;;;;;9.07;75.44;100000.16;5063702;28;20169;-65
2021/10/22 08:46:13;;;;;;;12.67;4.10;;;;;;;8.87;75.67;99987.06;5081099;28;20230;-65
2021/10/22 08:48:40;;;;;;;6.43;3.80;;;;;;;9.16;74.37;99985.44;5080779;28;20460;-65
2021/10/22 08:51:05;;;;;;;10.90;3.80;;;;;;;9.03;75.26;99995.81;5080719;28;20717;-65
2021/10/22 08:53:31;;;;;;;7.47;3.33;;;;;;;9.11;74.44;99988.06;5063323;28;20394;-65
2021/10/22 08:55:58;;;;;;;6.40;3.77;;;;;;;9.14;73.92;99982.00;5063471;28;20169;-65
2021/10/22 08:58:24;;;;;;;5.97;3.70;;;;;;;9.12;74.26;99978.50;5080759;28;20412;-65
2021/10/22 09:00:50;;;;;;;7.60;5.00;;;;;;;9.07;74.26;99975.91;5080666;28;20427;-65
2021/10/22 09:03:18;;;;;;;8.03;3.50;;;;;;;9.16;75.24;99998.44;5081253;28;20812;-65
2021/10/22 09:06:01;;;;;;;6.07;3.93;;;;;;;9.39;75.30;99999.41;5080698;28;20443;-66
2021/10/22 09:08:34;;;;;;;8.70;3.60;;;;;;;8.67;77.12;100014.69;5080544;28;20381;-66
2021/10/22 09:11:00;;;;;;;9.90;3.90;;;;;;;8.98;78.18;100007.91;5080535;28;20415;-65
2021/10/22 09:13:31;;;;;;;5.03;3.43;;;;;;;8.96;78.25;100009.66;5080359;28;20618;-65
2021/10/22 09:15:58;;;;;;;9.00;4.00;;;;;;;8.86;79.58;100008.75;5065051;28;20832;-65
2021/10/22 09:18:26;;;;;;;6.27;3.90;;;;;;;8.89;80.39;100024.34;5084957;28;20859;-66
2021/10/22 09:21:00;;;;;;;4.80;3.37;;;;;;;8.82;80.66;100039.91;5083747;28;20378;-66
2021/10/22 09:23:35;;;;;;;8.83;4.37;;;;;;;8.61;82.08;100038.91;5082012;28;20816;-65
2021/10/22 09:26:20;;;;;;;14.27;3.90;;;;;;;8.62;82.96;100053.66;5080708;28;20457;-65
2021/10/22 09:28:46;;;;;;;6.40;3.67;;;;;;;8.30;84.40;100054.25;5080389;28;20468;-65
2021/10/22 09:31:13;;;;;;;10.23;3.80;;;;;;;8.53;85.49;100048.41;5080106;28;20389;-65
2021/10/22 09:33:56;;;;;;;10.37;4.47;;;;;;;8.84;84.14;100026.06;5062702;28;20390;-65
2021/10/22 09:36:37;;;;;;;9.33;4.13;;;;;;;8.74;84.17;100027.75;5080421;28;20453;-66
2021/10/22 09:39:09;;;;;;;12.07;5.27;;;;;;;8.95;83.10;100026.09;5080182;28;20484;-65
2021/10/22 09:41:47;;;;;;;6.10;3.97;;;;;;;8.50;85.09;100018.06;5062593;28;20390;-65
2021/10/22 09:44:28;;;;;;;9.03;3.77;;;;;;;8.30;84.48;100009.25;5079866;28;20411;-65
2021/10/22 09:47:05;;;;;;;7.53;4.37;;;;;;;8.59;84.71;100012.03;5080023;28;20521;-65
2021/10/22 09:49:35;;;;;;;7.47;4.40;;;;;;;8.58;84.32;100006.00;5079867;28;20489;-65
2021/10/22 09:52:01;;;;;;;7.50;4.10;;;;;;;8.77;84.21;100006.97;5079665;28;20489;-65
2021/10/22 09:54:31;;;;;;;5.60;3.70;;;;;;;8.59;84.42;100014.66;5079725;28;20485;-66
2021/10/22 09:56:58;;;;;;;7.13;3.80;;;;;;;8.71;84.61;100012.16;5079697;28;20414;-64
2021/10/22 09:59:26;;;;;;;5.30;3.80;;;;;;;8.91;83.01;100025.22;5080266;28;20809;-65
2021/10/22 10:01:54;;;;;;;6.87;4.10;;;;;;;8.72;84.21;100029.44;5079501;28;20446;-66
2021/10/22 10:04:21;;;;;;;5.23;3.57;;;;;;;8.73;84.19;100041.59;5079497;28;20454;-66
2021/10/22 10:06:47;;;;;;;4.67;2.60;;;;;;;8.26;84.42;100052.50;5079786;28;20382;-65
2021/10/22 10:09:13;;;;;;;6.77;3.00;;;;;;;8.40;84.11;100050.00;5061056;28;20828;-65
2021/10/22 10:11:42;;;;;;;6.70;3.33;;;;;;;8.37;84.26;100061.22;5079206;28;20169;-65
2021/10/22 10:14:11;;;;;;;5.70;3.00;;;;;;;8.32;84.88;100055.16;5079789;28;20719;-67
2021/10/22 10:16:36;;;;;;;4.40;3.20;;;;;;;8.37;85.13;100065.56;5061771;28;20412;-66
2021/10/22 10:19:05;;;;;;;5.53;2.80;;;;;;;8.62;84.39;100068.34;5079105;28;20765;-65
2021/10/22 10:21:33;;;;;;;5.40;3.27;;;;;;;8.54;83.86;100066.59;5078804;28;20526;-65
2021/10/22 10:23:59;;;;;;;6.30;3.00;;;;;;;8.49;85.23;100080.41;5078452;28;20461;-65
2021/10/22 10:26:31;;;;;;;5.20;3.47;;;;;;;8.55;84.14;100075.25;5079126;28;20395;-65
2021/10/22 10:28:58;;;;;;;3.30;2.93;;;;;;;8.61;84.39;100072.69;5079464;28;20172;-65
2021/10/22 10:31:31;;;;;;;8.83;4.17;;;;;;;8.45;84.51;100063.03;5079193;28;20802;-65
2021/10/22 10:33:58;;;;;;;3.60;2.73;;;;;;;8.45;84.83;100066.53;5078912;28;20448;-66
2021/10/22 10:36:46;;;;;;;3.63;2.53;;;;;;;8.49;84.35;100070.03;5078881;28;20465;-64
2021/10/22 10:39:12;;;;;;;6.30;3.17;;;;;;;8.67;84.02;100075.31;5079038;28;20390;-65
2021/10/22 10:41:37;;;;;;;4.47;2.77;;;;;;;8.79;83.40;100103.13;5061311;28;20378;-65
2021/10/22 10:44:28;;;;;;;8.40;3.03;;;;;;;8.91;84.48;100092.81;5061546;28;20168;-65
2021/10/22 10:46:54;;;;;;;6.17;2.70;;;;;;;8.80;84.87;100120.47;5078412;28;20177;-65
2021/10/22 10:49:56;;;;;;;6.17;2.83;;;;;;;8.42;85.42;100124.47;5078484;28;20670;-64
2021/10/22 10:52:42;;;;;;;4.97;2.67;;;;;;;8.77;85.57;100116.13;5078412;28;20187;-66
2021/10/22 10:55:39;;;;;;;5.77;3.23;;;;;;;8.95;83.88;100124.91;5079920;28;20434;-67
2021/10/22 10:58:06;;;;;;;6.10;2.70;;;;;;;9.12;83.78;100118.91;5079919;28;20395;-66
2021/10/22 11:00:43;;;;;;;4.10;2.70;;;;;;;8.96;84.10;100121.44;5079876;28;20437;-65
2021/10/22 11:03:15;;;;;;;3.00;2.57;;;;;;;9.16;82.98;100124.16;5078847;28;20419;-65
2021/10/22 11:05:46;;;;;;;8.30;3.20;;;;;;;9.16;83.97;100107.66;5078578;28;20424;-65
2021/10/22 11:08:30;;;;;;;4.73;2.50;;;;;;;9.07;84.58;100111.97;5078469;28;20394;-66
2021/10/22 11:11:26;;;;;;;4.97;3.07;;;;;;;9.26;84.22;100112.94;5078318;28;20399;-65
2021/10/22 11:13:55;;;;;;;4.20;2.57;;;;;;;9.12;83.75;100112.00;5078305;28;20898;-66
2021/10/22 11:16:21;;;;;;;3.43;3.00;;;;;;;9.16;84.53;100118.06;5078326;28;20382;-65
2021/10/22 11:18:52;;;;;;;7.57;3.33;;;;;;;9.29;84.29;100119.03;5078096;28;20461;-65
2021/10/22 11:21:18;;;;;;;3.97;2.70;;;;;;;9.15;83.87;100117.22;5078063;28;20223;-65
2021/10/22 11:23:44;;;;;;;2.80;2.60;;;;;;;9.38;83.05;100122.53;5078443;28;20449;-65
2021/10/22 11:26:13;;;;;;;4.27;2.80;;;;;;;9.77;81.35;100123.53;5078096;28;20518;-65
2021/10/22 11:28:39;;;;;;;6.10;3.00;;;;;;;9.87;81.64;100131.38;5078334;28;20169;-66
2021/10/22 11:31:04;;;;;;;6.90;3.33;;;;;;;9.50;82.06;100128.63;5078362;28;20447;-66
2021/10/22 11:33:29;;;;;;;3.67;2.70;;;;;;;9.57;82.03;100123.47;5078176;28;20177;-65
2021/10/22 11:35:55;;;;;;;6.37;2.57;;;;;;;9.90;81.50;100119.25;5060535;28;20527;-65
2021/10/22 11:38:25;;;;;;;3.23;2.47;;;;;;;9.22;82.95;100118.13;5078459;28;20169;-64